Time;durP1;ratioP1;P1;durP2;ratioP2;P2;SDS_P1;SDS_P2;PMS_P1;PMS_P2;Temp;Humidity;BMP_temperature;BMP_pressure;BME280_temperature;BME280_humidity;BME280_pressure;Samples;Min_cycle;Max_cycle;Signal;HPM_P1;HPM_P2
2022/11/25 00:00:24;;;;;;;0.00;0.00;;;;;;;3.76;100.00;98524.91;4917894;28;21036;-63
2022/11/25 00:02:50;;;;;;;0.00;0.00;;;;;;;3.84;100.00;98530.34;4922099;28;20248;-63
2022/11/25 00:05:18;;;;;;;0.00;0.00;;;;;;;3.90;100.00;98526.50;4917210;28;20703;-63
2022/11/25 00:07:45;;;;;;;0.00;0.00;;;;;;;3.93;100.00;98515.97;4922016;28;20302;-63
2022/11/25 00:10:12;;;;;;;0.00;0.00;;;;;;;4.04;100.00;98515.16;4914934;29;20275;-63
2022/11/25 00:12:38;;;;;;;0.00;0.00;;;;;;;4.04;100.00;98519.53;4915496;28;20244;-62
2022/11/25 00:15:08;;;;;;;0.00;0.00;;;;;;;4.05;100.00;98521.19;4913324;28;20235;-62
2022/11/25 00:17:36;;;;;;;0.10;0.10;;;;;;;4.04;100.00;98514.38;4924974;28;20242;-62
2022/11/25 00:20:05;;;;;;;0.00;0.00;;;;;;;4.07;100.00;98507.19;4917566;28;20243;-62
2022/11/25 00:22:32;;;;;;;0.00;0.00;;;;;;;4.03;100.00;98516.09;4919605;28;20295;-62
2022/11/25 00:24:59;;;;;;;0.07;0.07;;;;;;;4.12;100.00;98518.03;4915320;28;20295;-63
2022/11/25 00:27:27;;;;;;;0.00;0.00;;;;;;;4.15;100.00;98514.41;4917128;28;20239;-62
2022/11/25 00:29:54;;;;;;;0.00;0.00;;;;;;;4.13;100.00;98518.84;4922875;28;21708;-62
2022/11/25 00:32:21;;;;;;;0.00;0.00;;;;;;;4.13;100.00;98522.25;4904037;28;20243;-62
2022/11/25 00:34:48;;;;;;;0.00;0.00;;;;;;;4.18;100.00;98515.91;4906075;29;20247;-63
2022/11/25 00:37:15;;;;;;;0.00;0.00;;;;;;;4.19;100.00;98525.31;4897724;29;20228;-62
2022/11/25 00:39:45;;;;;;;0.00;0.00;;;;;;;4.22;100.00;98528.53;4912495;28;20859;-63
2022/11/25 00:44:56;;;;;;;0.00;0.00;;;;;;;4.33;100.00;98529.47;4917066;28;20274;-63
2022/11/25 00:47:23;;;;;;;0.00;0.00;;;;;;;4.33;100.00;98530.31;4915494;28;20255;-63
2022/11/25 00:49:53;;;;;;;0.00;0.00;;;;;;;4.30;100.00;98525.34;4915390;28;20270;-62
2022/11/25 00:52:22;;;;;;;0.00;0.00;;;;;;;4.31;100.00;98528.75;4915165;28;20726;-63
2022/11/25 00:54:51;;;;;;;0.00;0.00;;;;;;;4.31;100.00;98528.75;4922028;29;20254;-62
2022/11/25 00:57:19;;;;;;;0.07;0.07;;;;;;;4.32;100.00;98527.81;4915413;28;20711;-62
2022/11/25 00:59:46;;;;;;;0.00;0.00;;;;;;;4.36;100.00;98537.00;4923608;28;20230;-62
2022/11/25 01:02:14;;;;;;;0.00;0.00;;;;;;;4.47;100.00;98531.84;4938125;28;20236;-61
2022/11/25 01:04:43;;;;;;;0.00;0.00;;;;;;;4.49;100.00;98526.59;4930434;28;20293;-61
2022/11/25 01:07:15;;;;;;;0.00;0.00;;;;;;;4.48;100.00;98523.16;4921589;28;20947;-61
2022/11/25 01:09:42;;;;;;;0.00;0.00;;;;;;;4.48;100.00;98527.53;4920048;29;20321;-61
2022/11/25 01:12:10;;;;;;;0.07;0.07;;;;;;;4.50;100.00;98523.88;4926765;28;20243;-61
2022/11/25 01:14:37;;;;;;;0.00;0.00;;;;;;;4.52;100.00;98529.75;4930389;29;20584;-61
2022/11/25 01:17:04;;;;;;;0.00;0.00;;;;;;;4.58;100.00;98526.69;4934280;28;20219;-61
2022/11/25 01:19:32;;;;;;;0.00;0.00;;;;;;;4.64;100.00;98532.34;4926923;28;20237;-61
2022/11/25 01:21:59;;;;;;;0.10;0.10;;;;;;;4.60;100.00;98542.13;4933357;28;20236;-61
2022/11/25 01:24:26;;;;;;;0.00;0.00;;;;;;;4.59;100.00;98537.88;4914142;28;20250;-61
2022/11/25 01:26:55;;;;;;;0.00;0.00;;;;;;;4.66;100.00;98549.41;4909566;29;20228;-61
2022/11/25 01:29:24;;;;;;;0.00;0.00;;;;;;;4.63;100.00;98551.38;4925284;28;20234;-62
2022/11/25 01:31:55;;;;;;;0.10;0.10;;;;;;;4.59;100.00;98563.75;4944073;28;20274;-61
2022/11/25 01:34:24;;;;;;;0.00;0.00;;;;;;;4.57;100.00;98561.25;4932163;28;20227;-61
2022/11/25 01:36:51;;;;;;;0.00;0.00;;;;;;;4.54;100.00;98558.88;4932509;28;20231;-61
2022/11/25 01:39:20;;;;;;;0.07;0.07;;;;;;;4.52;100.00;98547.03;4929174;28;20223;-61
2022/11/25 01:41:47;;;;;;;0.00;0.00;;;;;;;4.54;100.00;98555.50;4951435;28;20454;-61
2022/11/25 01:44:16;;;;;;;0.10;0.10;;;;;;;4.55;100.00;98551.97;4926664;28;20238;-61
2022/11/25 01:46:57;;;;;;;0.10;0.10;;;;;;;4.50;100.00;98552.31;4932406;28;20230;-62
2022/11/25 01:49:30;;;;;;;0.10;0.10;;;;;;;4.51;100.00;98559.13;4927193;28;20633;-62
2022/11/25 01:52:02;;;;;;;0.07;0.07;;;;;;;4.55;100.00;98559.72;4931136;28;20659;-62
2022/11/25 01:54:33;;;;;;;0.00;0.00;;;;;;;4.54;100.00;98542.56;4941360;28;20235;-62
2022/11/25 01:57:05;;;;;;;0.00;0.00;;;;;;;4.52;100.00;98549.63;4930765;28;20227;-62
2022/11/25 01:59:35;;;;;;;0.00;0.00;;;;;;;4.57;100.00;98552.69;4929698;28;20581;-62
2022/11/25 02:02:04;;;;;;;0.00;0.00;;;;;;;4.51;100.00;98551.38;4945792;28;20275;-61
2022/11/25 02:04:35;;;;;;;0.10;0.10;;;;;;;4.51;100.00;98545.38;4928555;28;20238;-62
2022/11/25 02:07:08;;;;;;;0.10;0.10;;;;;;;4.48;100.00;98549.00;4932982;28;20234;-62
2022/11/25 02:09:38;;;;;;;0.00;0.00;;;;;;;4.48;100.00;98543.03;4930999;29;20832;-62
2022/11/25 02:12:05;;;;;;;0.00;0.00;;;;;;;4.53;100.00;98535.75;4927563;28;20241;-62
2022/11/25 02:14:32;;;;;;;0.00;0.00;;;;;;;4.54;100.00;98527.88;4924005;28;20231;-62
2022/11/25 02:17:00;;;;;;;0.00;0.00;;;;;;;4.51;100.00;98527.28;4934556;28;20311;-62
2022/11/25 02:19:36;;;;;;;0.10;0.10;;;;;;;4.50;100.00;98525.66;4929320;28;21204;-62
2022/11/25 02:22:09;;;;;;;0.00;0.00;;;;;;;4.50;100.00;98515.31;4931493;28;20237;-62
2022/11/25 02:24:42;;;;;;;0.00;0.00;;;;;;;4.51;100.00;98522.13;4927212;28;20231;-62
2022/11/25 02:27:10;;;;;;;0.07;0.07;;;;;;;4.48;100.00;98517.19;4926251;28;20338;-62
2022/11/25 02:29:38;;;;;;;0.00;0.00;;;;;;;4.54;100.00;98522.69;4946613;28;20302;-62
2022/11/25 02:32:06;;;;;;;0.00;0.00;;;;;;;4.51;100.00;98522.94;4938304;28;20569;-62
2022/11/25 02:34:32;;;;;;;0.00;0.00;;;;;;;4.49;100.00;98518.81;4932599;28;20251;-62
2022/11/25 02:37:00;;;;;;;0.00;0.00;;;;;;;4.48;100.00;98514.59;4929302;29;20235;-62
2022/11/25 02:39:28;;;;;;;0.00;0.00;;;;;;;4.47;100.00;98510.38;4927890;28;20609;-62
2022/11/25 02:42:00;;;;;;;0.10;0.10;;;;;;;4.46;100.00;98511.31;4918765;28;20241;-62
2022/11/25 02:44:28;;;;;;;0.00;0.00;;;;;;;4.45;100.00;98507.88;4925704;28;20730;-61
2022/11/25 02:46:54;;;;;;;0.00;0.00;;;;;;;4.48;100.00;98512.00;4914286;29;20290;-62
2022/11/25 02:49:21;;;;;;;0.07;0.07;;;;;;;4.45;100.00;98509.66;4927457;28;20226;-62
2022/11/25 02:51:47;;;;;;;0.00;0.00;;;;;;;4.45;100.00;98505.28;4926933;28;20224;-61
2022/11/25 02:54:17;;;;;;;0.00;0.00;;;;;;;4.43;100.00;98510.59;4926510;28;20226;-62
2022/11/25 02:56:44;;;;;;;0.00;0.00;;;;;;;4.43;100.00;98510.59;4932506;28;20640;-62
2022/11/25 02:59:11;;;;;;;0.07;0.07;;;;;;;4.49;100.00;98503.31;4931318;28;20720;-62
2022/11/25 03:01:40;;;;;;;0.00;0.00;;;;;;;4.51;100.00;98502.25;4943283;28;20322;-62
2022/11/25 03:04:09;;;;;;;0.00;0.00;;;;;;;4.50;100.00;98504.97;4946989;28;20245;-61
2022/11/25 03:06:36;;;;;;;0.00;0.00;;;;;;;4.50;100.00;98499.78;4948971;28;20242;-62
2022/11/25 03:09:02;;;;;;;0.00;0.00;;;;;;;4.50;100.00;98498.03;4930756;28;20325;-62
2022/11/25 03:14:15;;;;;;;0.10;0.10;;;;;;;4.53;100.00;98504.72;4908405;28;20782;-61
2022/11/25 03:16:44;;;;;;;0.10;0.10;;;;;;;4.52;100.00;98514.25;4936782;28;20227;-62
2022/11/25 03:19:10;;;;;;;0.03;0.03;;;;;;;4.55;100.00;98514.00;4948184;28;20273;-62
2022/11/25 03:21:37;;;;;;;0.10;0.10;;;;;;;4.52;100.00;98503.91;4932942;29;20234;-62
2022/11/25 03:24:04;;;;;;;0.10;0.10;;;;;;;4.47;100.00;98506.00;4947768;28;20235;-62
2022/11/25 03:26:31;;;;;;;0.00;0.00;;;;;;;4.47;100.00;98503.41;4937168;28;20679;-61
2022/11/25 03:28:57;;;;;;;0.07;0.07;;;;;;;4.45;100.00;98505.28;4935106;28;20235;-62
2022/11/25 03:31:24;;;;;;;0.00;0.00;;;;;;;4.44;100.00;98511.41;4913865;28;20239;-62
2022/11/25 03:33:52;;;;;;;0.00;0.00;;;;;;;4.43;100.00;98500.25;4939658;28;20231;-62
2022/11/25 03:36:20;;;;;;;0.10;0.10;;;;;;;4.45;100.00;98497.53;4947785;28;20227;-62
2022/11/25 03:38:47;;;;;;;0.00;0.00;;;;;;;4.48;100.00;98492.13;4933814;28;20237;-62
2022/11/25 03:41:14;;;;;;;0.00;0.00;;;;;;;4.51;100.00;98493.69;4932617;28;20707;-62
2022/11/25 03:43:41;;;;;;;0.00;0.00;;;;;;;4.51;100.00;98499.66;4917975;28;20396;-62
2022/11/25 03:46:08;;;;;;;0.00;0.00;;;;;;;4.50;100.00;98503.19;4928354;28;20238;-62
2022/11/25 03:48:34;;;;;;;0.00;0.00;;;;;;;4.50;100.00;98499.78;4930008;28;20243;-61
2022/11/25 03:51:02;;;;;;;0.03;0.03;;;;;;;4.47;100.00;98494.84;4929230;28;20301;-62
2022/11/25 03:53:29;;;;;;;0.00;0.00;;;;;;;4.44;100.00;98488.13;4948891;28;20230;-62
2022/11/25 03:55:58;;;;;;;0.10;0.10;;;;;;;4.41;100.00;98496.13;4919221;28;20239;-62
2022/11/25 03:58:25;;;;;;;0.10;0.10;;;;;;;4.39;100.00;98498.00;4925365;28;20290;-62
2022/11/25 04:00:52;;;;;;;0.00;0.00;;;;;;;4.36;100.00;98500.81;4935970;28;20236;-62
2022/11/25 04:03:18;;;;;;;0.00;0.00;;;;;;;4.32;100.00;98499.38;4909677;29;20234;-62
2022/11/25 04:05:48;;;;;;;0.10;0.10;;;;;;;4.20;100.00;98503.72;4916866;28;20816;-62
2022/11/25 04:08:16;;;;;;;0.00;0.00;;;;;;;4.10;100.00;98503.59;4915050;28;20397;-62
2022/11/25 04:10:45;;;;;;;0.00;0.00;;;;;;;4.01;100.00;98489.56;4927422;28;20271;-62
2022/11/25 04:13:11;;;;;;;0.00;0.00;;;;;;;3.92;100.00;98485.06;4931069;28;20235;-62
2022/11/25 04:15:44;;;;;;;0.00;0.00;;;;;;;3.87;100.00;98485.41;4921593;28;20239;-61
2022/11/25 04:18:11;;;;;;;0.00;0.00;;;;;;;3.80;100.00;98479.06;4913909;28;20235;-62
2022/11/25 04:20:38;;;;;;;0.10;0.10;;;;;;;3.75;100.00;98468.22;4917143;28;21111;-61
2022/11/25 04:23:07;;;;;;;0.00;0.00;;;;;;;3.62;100.00;98466.53;4925811;28;20230;-62
2022/11/25 04:25:40;;;;;;;0.00;0.00;;;;;;;3.57;100.00;98463.47;4935797;28;20230;-62
2022/11/25 04:28:12;;;;;;;0.00;0.00;;;;;;;3.52;100.00;98465.53;4931816;28;20306;-62
2022/11/25 04:33:07;;;;;;;0.00;0.00;;;;;;;3.52;100.00;98468.97;4941846;23;20288;-59
2022/11/25 04:35:36;;;;;;;0.10;0.10;;;;;;;3.56;100.00;98469.56;4945553;28;20273;-59
2022/11/25 04:38:03;;;;;;;0.00;0.00;;;;;;;3.51;100.00;98471.63;4946162;28;20329;-59
2022/11/25 04:40:33;;;;;;;0.00;0.00;;;;;;;3.47;100.00;98470.22;4943830;28;20237;-61
2022/11/25 04:43:13;;;;;;;0.00;0.00;;;;;;;3.47;100.00;98463.31;4924636;28;20294;-60
2022/11/25 04:45:48;;;;;;;0.00;0.00;;;;;;;3.48;100.00;98464.97;4932450;28;20776;-61
2022/11/25 04:48:15;;;;;;;0.00;0.00;;;;;;;3.53;100.00;98464.63;4907699;28;20219;-60
2022/11/25 04:50:41;;;;;;;0.00;0.00;;;;;;;3.52;100.00;98476.72;4928043;28;20692;-59
2022/11/25 04:53:14;;;;;;;0.10;0.10;;;;;;;3.52;100.00;98474.13;4939097;28;20623;-59
2022/11/25 04:55:41;;;;;;;0.00;0.00;;;;;;;3.51;100.00;98474.22;4943298;28;20286;-61
2022/11/25 04:59:38;;;;;;;0.00;0.00;;;;;;;3.52;100.00;98474.13;4932414;28;20227;-61
2022/11/25 05:01:01;;;;;;;0.00;0.00;;;;;;;3.52;100.00;98473.28;4942603;28;20241;-61
2022/11/25 05:03:29;;;;;;;0.07;0.07;;;;;;;3.43;100.00;98484.25;4925230;28;20314;-61
2022/11/25 05:05:55;;;;;;;0.00;0.00;;;;;;;3.29;100.00;98493.78;4942641;28;20231;-61
2022/11/25 05:08:23;;;;;;;0.00;0.00;;;;;;;3.28;100.00;98491.34;4929297;28;20334;-61
2022/11/25 05:10:49;;;;;;;0.03;0.03;;;;;;;3.20;100.00;98497.84;4939840;28;20243;-61
2022/11/25 05:13:18;;;;;;;0.00;0.00;;;;;;;3.17;100.00;98499.84;4916769;28;20259;-61
2022/11/25 05:15:45;;;;;;;0.00;0.00;;;;;;;3.25;100.00;98497.53;4926845;29;20231;-59
2022/11/25 05:18:13;;;;;;;0.00;0.00;;;;;;;3.20;100.00;98505.59;4930194;28;20228;-61
2022/11/25 05:20:46;;;;;;;0.03;0.03;;;;;;;3.21;100.00;98507.25;4932661;28;20249;-60
2022/11/25 05:23:15;;;;;;;0.00;0.00;;;;;;;3.14;100.00;98510.38;4922784;28;20719;-59
2022/11/25 05:25:42;;;;;;;0.03;0.03;;;;;;;3.10;100.00;98500.25;4939581;28;20232;-59
2022/11/25 05:28:34;;;;;;;0.00;0.00;;;;;;;3.18;100.00;98511.81;4930480;28;20242;-61
2022/11/25 05:31:01;;;;;;;0.00;0.00;;;;;;;3.23;100.00;98517.44;4928042;28;20295;-59
2022/11/25 05:33:28;;;;;;;0.00;0.00;;;;;;;3.21;100.00;98517.56;4938052;28;20261;-60
2022/11/25 05:35:56;;;;;;;0.00;0.00;;;;;;;3.29;100.00;98519.59;4939178;28;20326;-60
2022/11/25 05:38:25;;;;;;;0.00;0.00;;;;;;;3.29;100.00;98524.75;4907320;29;20700;-59
2022/11/25 05:40:52;;;;;;;0.00;0.00;;;;;;;3.34;100.00;98525.25;4942463;28;20278;-59
2022/11/25 05:43:20;;;;;;;0.00;0.00;;;;;;;3.39;100.00;98543.00;4938626;28;20259;-60
2022/11/25 05:45:48;;;;;;;0.00;0.00;;;;;;;3.47;100.00;98553.63;4938858;28;20862;-60
2022/11/25 05:48:15;;;;;;;0.00;0.00;;;;;;;3.67;100.00;98559.16;4913807;28;20215;-59
2022/11/25 05:50:42;;;;;;;0.00;0.00;;;;;;;3.72;100.00;98574.31;4926281;29;20343;-60
2022/11/25 05:53:18;;;;;;;0.00;0.00;;;;;;;3.78;100.00;98579.03;4910811;28;20317;-60
2022/11/25 05:55:54;;;;;;;0.07;0.07;;;;;;;3.84;100.00;98576.81;4925787;28;20240;-60
2022/11/25 05:58:30;;;;;;;0.00;0.00;;;;;;;4.04;100.00;98574.56;4929282;28;20266;-59
2022/11/25 06:01:00;;;;;;;0.00;0.00;;;;;;;4.13;100.00;98584.25;4940931;28;20262;-59
2022/11/25 06:03:28;;;;;;;0.00;0.00;;;;;;;4.13;100.00;98584.25;4938130;28;20644;-59
2022/11/25 06:05:56;;;;;;;0.00;0.00;;;;;;;4.14;100.00;98593.66;4926092;29;20325;-60
2022/11/25 06:08:23;;;;;;;0.00;0.00;;;;;;;4.15;100.00;98607.41;4922468;28;20215;-60
2022/11/25 06:10:49;;;;;;;0.00;0.00;;;;;;;4.16;100.00;98603.88;4921747;28;20302;-60
2022/11/25 06:13:16;;;;;;;0.00;0.00;;;;;;;4.20;100.00;98600.16;4938518;28;20223;-60
2022/11/25 06:15:44;;;;;;;0.00;0.00;;;;;;;4.23;100.00;98596.50;4941364;28;20245;-60
2022/11/25 06:18:17;;;;;;;0.00;0.00;;;;;;;4.25;100.00;98603.19;4929196;28;20227;-60
2022/11/25 06:20:44;;;;;;;0.00;0.00;;;;;;;4.31;100.00;98601.09;4941369;28;20311;-60
2022/11/25 06:23:11;;;;;;;0.10;0.10;;;;;;;4.32;100.00;98603.59;4936353;28;20220;-60
2022/11/25 06:25:39;;;;;;;0.00;0.00;;;;;;;4.36;100.00;98599.00;4931950;28;20298;-60
2022/11/25 06:28:06;;;;;;;0.00;0.00;;;;;;;4.40;100.00;98592.69;4926209;28;20238;-60
2022/11/25 06:30:33;;;;;;;0.00;0.00;;;;;;;4.46;100.00;98588.84;4937756;28;20246;-60
2022/11/25 06:33:17;;;;;;;0.00;0.00;;;;;;;4.49;100.00;98584.25;4921139;28;20223;-60
2022/11/25 06:35:46;;;;;;;0.07;0.07;;;;;;;4.52;100.00;98578.84;4929770;28;20306;-60
2022/11/25 06:38:13;;;;;;;0.10;0.10;;;;;;;4.63;100.00;98572.06;4926423;28;20872;-60
2022/11/25 06:40:39;;;;;;;0.00;0.00;;;;;;;4.68;100.00;98588.91;4931197;28;20294;-60
2022/11/25 06:43:06;;;;;;;0.00;0.00;;;;;;;4.71;100.00;98586.09;4929703;28;20234;-60
2022/11/25 06:45:34;;;;;;;0.00;0.00;;;;;;;4.72;100.00;98592.91;4930685;28;20711;-60
2022/11/25 06:48:01;;;;;;;0.00;0.00;;;;;;;4.77;100.00;98597.72;4931069;28;20239;-60
2022/11/25 06:50:29;;;;;;;0.00;0.00;;;;;;;4.88;100.00;98618.44;4916198;28;20247;-60
2022/11/25 06:52:55;;;;;;;0.00;0.00;;;;;;;4.87;100.00;98615.97;4917540;28;20242;-60
2022/11/25 06:55:22;;;;;;;0.00;0.00;;;;;;;4.90;100.00;98622.69;4919773;28;20237;-60
2022/11/25 06:57:48;;;;;;;0.00;0.00;;;;;;;4.93;100.00;98640.56;4930942;28;20235;-60
2022/11/25 07:00:17;;;;;;;0.00;0.00;;;;;;;4.97;100.00;98635.03;4927754;28;20297;-60
2022/11/25 07:02:43;;;;;;;0.03;0.03;;;;;;;5.03;100.00;98647.50;4929888;28;20591;-59
2022/11/25 07:05:10;;;;;;;0.00;0.00;;;;;;;5.14;100.00;98640.69;4920308;28;20232;-59
2022/11/25 07:07:38;;;;;;;0.00;0.00;;;;;;;5.14;100.00;98635.53;4930451;28;20230;-59
2022/11/25 07:10:06;;;;;;;0.00;0.00;;;;;;;5.24;100.00;98639.06;4930709;28;20246;-59
2022/11/25 07:12:33;;;;;;;0.07;0.07;;;;;;;5.23;100.00;98641.78;4927973;28;20246;-59
2022/11/25 07:15:01;;;;;;;0.00;0.00;;;;;;;5.25;100.00;98645.09;4930438;28;20600;-59
2022/11/25 07:17:27;;;;;;;0.00;0.00;;;;;;;5.26;100.00;98642.38;4927156;28;20247;-60
2022/11/25 07:19:54;;;;;;;0.00;0.00;;;;;;;5.29;100.00;98636.97;4930497;28;20293;-59
2022/11/25 07:22:21;;;;;;;0.00;0.00;;;;;;;5.32;100.00;98638.47;4927422;28;20587;-59
2022/11/25 07:24:49;;;;;;;0.00;0.00;;;;;;;5.39;100.00;98644.81;4930328;28;20726;-59
2022/11/25 07:27:16;;;;;;;0.00;0.00;;;;;;;5.40;100.00;98649.06;4917126;28;20228;-59
2022/11/25 07:29:42;;;;;;;0.00;0.00;;;;;;;5.41;100.00;98645.53;4923004;28;20231;-59
2022/11/25 07:32:09;;;;;;;0.10;0.10;;;;;;;5.44;100.00;98645.31;4926535;28;20227;-59
2022/11/25 07:34:36;;;;;;;0.00;0.00;;;;;;;5.50;100.00;98650.94;4929671;28;20238;-59
2022/11/25 07:37:02;;;;;;;0.00;0.00;;;;;;;5.51;100.00;98660.38;4929601;28;20239;-59
2022/11/25 07:39:29;;;;;;;0.00;0.00;;;;;;;5.62;100.00;98650.00;4927868;28;20238;-59
2022/11/25 07:41:57;;;;;;;0.00;0.00;;;;;;;6.02;100.00;98651.28;4928776;28;20584;-59
2022/11/25 07:44:23;;;;;;;0.00;0.00;;;;;;;6.14;100.00;98654.69;4924314;28;20231;-59
2022/11/25 07:46:54;;;;;;;0.00;0.00;;;;;;;6.32;100.00;98662.75;4921513;28;20239;-60
2022/11/25 07:49:24;;;;;;;0.00;0.00;;;;;;;6.66;99.68;98675.59;4941717;28;20227;-59
2022/11/25 07:51:53;;;;;;;0.00;0.00;;;;;;;6.74;100.00;98660.25;4930666;28;20919;-59
2022/11/25 07:54:21;;;;;;;0.00;0.00;;;;;;;6.90;100.00;98690.09;4925406;28;20219;-59
2022/11/25 07:56:48;;;;;;;0.00;0.00;;;;;;;6.99;98.10;98678.97;4924217;28;20243;-58
2022/11/25 07:59:18;;;;;;;0.07;0.07;;;;;;;6.97;100.00;98688.66;4926230;28;20719;-60
2022/11/25 08:01:45;;;;;;;0.00;0.00;;;;;;;7.00;100.00;98690.19;4929965;28;20254;-59
2022/11/25 08:04:13;;;;;;;0.00;0.00;;;;;;;7.04;100.00;98697.56;4926966;28;20275;-59
2022/11/25 08:06:42;;;;;;;0.00;0.00;;;;;;;7.12;99.33;98696.13;4935960;28;20235;-60
2022/11/25 08:09:10;;;;;;;0.00;0.00;;;;;;;7.14;100.00;98696.81;4926705;28;20227;-60
2022/11/25 08:11:37;;;;;;;0.00;0.00;;;;;;;7.19;97.02;98705.06;4929557;28;20242;-60
2022/11/25 08:14:04;;;;;;;0.00;0.00;;;;;;;7.47;94.20;98700.16;4920818;28;20251;-60
2022/11/25 08:16:32;;;;;;;0.00;0.00;;;;;;;7.71;90.66;98697.25;4926714;28;20239;-60
2022/11/25 08:19:00;;;;;;;0.00;0.00;;;;;;;7.85;90.74;98695.25;4929141;28;20235;-59
2022/11/25 08:21:27;;;;;;;0.10;0.10;;;;;;;8.00;90.18;98701.72;4926275;28;20231;-60
2022/11/25 08:23:54;;;;;;;0.00;0.00;;;;;;;8.07;91.37;98700.25;4928332;28;20215;-59
2022/11/25 08:26:25;;;;;;;0.00;0.00;;;;;;;8.19;91.09;98697.53;4926651;28;20239;-59
2022/11/25 08:28:52;;;;;;;0.00;0.00;;;;;;;8.25;92.36;98705.63;4928885;28;20238;-59
2022/11/25 08:31:21;;;;;;;0.00;0.00;;;;;;;8.39;90.22;98698.38;4918505;28;20378;-60
2022/11/25 08:33:49;;;;;;;0.00;0.00;;;;;;;8.57;89.35;98699.41;4928950;28;20708;-61
2022/11/25 08:36:16;;;;;;;0.00;0.00;;;;;;;8.63;90.25;98699.81;4925935;28;20235;-60
2022/11/25 08:38:44;;;;;;;0.00;0.00;;;;;;;8.70;89.90;98698.31;4928526;28;20708;-60
2022/11/25 08:41:12;;;;;;;0.00;0.00;;;;;;;8.68;90.68;98706.25;4925894;28;20570;-60
2022/11/25 08:43:40;;;;;;;0.00;0.00;;;;;;;8.76;90.27;98694.31;4928389;28;20235;-60
2022/11/25 08:46:09;;;;;;;0.00;0.00;;;;;;;8.79;92.12;98696.66;4927294;28;20599;-60
2022/11/25 08:48:36;;;;;;;0.00;0.00;;;;;;;8.85;91.04;98698.72;4928032;28;20229;-60
2022/11/25 08:51:08;;;;;;;0.00;0.00;;;;;;;8.91;92.42;98698.16;4921422;28;20254;-60
2022/11/25 08:53:35;;;;;;;0.00;0.00;;;;;;;9.03;92.58;98703.22;4925931;28;20234;-60
2022/11/25 08:56:01;;;;;;;0.00;0.00;;;;;;;9.05;93.58;98714.31;4928948;28;20231;-60
2022/11/25 08:58:28;;;;;;;0.00;0.00;;;;;;;9.13;94.74;98714.44;4936720;28;20236;-59
2022/11/25 09:00:55;;;;;;;0.00;0.00;;;;;;;9.40;93.49;98720.72;4923038;28;20231;-60
2022/11/25 09:03:21;;;;;;;0.00;0.00;;;;;;;9.49;94.17;98717.25;4924667;28;20736;-61
2022/11/25 09:05:49;;;;;;;0.00;0.00;;;;;;;9.57;93.39;98722.56;4928835;28;20638;-59
2022/11/25 09:08:17;;;;;;;0.00;0.00;;;;;;;9.58;93.43;98723.41;4925968;28;20287;-60
2022/11/25 09:10:44;;;;;;;0.00;0.00;;;;;;;9.51;93.34;98724.91;4923626;28;20244;-59
2022/11/25 09:13:10;;;;;;;0.00;0.00;;;;;;;9.42;93.77;98732.63;4922777;28;20239;-60
2022/11/25 09:15:37;;;;;;;0.00;0.00;;;;;;;9.42;92.02;98731.81;4928009;28;20266;-61
2022/11/25 09:18:06;;;;;;;0.00;0.00;;;;;;;9.40;95.04;98738.94;4928147;28;20227;-59
2022/11/25 09:20:38;;;;;;;0.00;0.00;;;;;;;9.38;96.93;98735.66;4924685;28;20254;-61
2022/11/25 09:23:06;;;;;;;0.00;0.00;;;;;;;9.39;95.39;98743.31;4919886;28;20235;-60
2022/11/25 09:25:35;;;;;;;0.00;0.00;;;;;;;9.40;95.02;98752.78;4926296;28;20311;-60
2022/11/25 09:28:02;;;;;;;0.00;0.00;;;;;;;9.43;94.68;98756.91;4927635;28;20227;-60
2022/11/25 09:30:28;;;;;;;0.00;0.00;;;;;;;9.29;97.53;98761.59;4925120;28;20773;-60
2022/11/25 09:32:56;;;;;;;0.00;0.00;;;;;;;9.20;96.38;98766.78;4928654;28;20247;-60
2022/11/25 09:35:23;;;;;;;0.00;0.00;;;;;;;9.14;97.00;98761.16;4925419;28;20251;-59
2022/11/25 09:37:50;;;;;;;0.00;0.00;;;;;;;9.13;97.28;98774.34;4920102;28;20294;-60
2022/11/25 09:40:19;;;;;;;0.00;0.00;;;;;;;9.06;98.37;98776.66;4925362;28;20232;-60
2022/11/25 09:48:48;;;;;;;0.00;0.00;;;;;;;8.96;95.48;98774.06;4924625;28;20236;-60
2022/11/25 09:51:20;;;;;;;0.00;0.00;;;;;;;8.97;95.48;98786.13;4924041;28;20300;-61
2022/11/25 09:53:53;;;;;;;0.00;0.00;;;;;;;8.99;96.50;98783.41;4926711;28;20243;-60
2022/11/25 09:56:28;;;;;;;0.00;0.00;;;;;;;9.05;96.48;98790.63;4924276;28;20242;-60
2022/11/25 09:59:02;;;;;;;0.00;0.00;;;;;;;9.09;96.90;98792.00;4927139;28;20240;-60
2022/11/25 10:01:30;;;;;;;0.00;0.00;;;;;;;9.13;95.41;98793.38;4923207;28;20231;-61
2022/11/25 10:04:02;;;;;;;0.00;0.00;;;;;;;9.04;95.99;98796.81;4925890;28;20250;-60
2022/11/25 10:06:31;;;;;;;0.00;0.00;;;;;;;8.74;99.29;98805.56;4913245;28;20326;-60
2022/11/25 10:09:00;;;;;;;0.00;0.00;;;;;;;8.72;97.86;98813.50;4922909;28;20227;-61
2022/11/25 10:11:41;;;;;;;0.00;0.00;;;;;;;8.62;98.79;98808.25;4924166;28;20238;-61
2022/11/25 10:14:15;;;;;;;0.00;0.00;;;;;;;8.55;100.00;98817.56;4940275;28;21716;-61
2022/11/25 10:16:49;;;;;;;0.00;0.00;;;;;;;8.51;100.00;98817.00;4929637;28;20320;-61
2022/11/25 10:19:24;;;;;;;0.00;0.00;;;;;;;8.40;100.00;98817.09;4923757;28;20231;-61
2022/11/25 10:21:52;;;;;;;0.00;0.00;;;;;;;8.34;100.00;98815.84;4925279;28;20259;-60
2022/11/25 10:24:20;;;;;;;0.00;0.00;;;;;;;8.34;100.00;98815.84;4926032;28;20285;-61
2022/11/25 10:26:55;;;;;;;0.00;0.00;;;;;;;8.37;100.00;98823.38;4931249;28;20226;-60
2022/11/25 10:29:28;;;;;;;0.00;0.00;;;;;;;8.31;100.00;98821.31;4926660;28;20739;-60
2022/11/25 10:32:04;;;;;;;0.00;0.00;;;;;;;8.18;100.00;98829.31;4924149;28;20248;-60
2022/11/25 10:34:36;;;;;;;0.00;0.00;;;;;;;8.12;100.00;98837.63;4920444;28;20728;-64
2022/11/25 10:37:09;;;;;;;0.00;0.00;;;;;;;8.10;100.00;98832.59;4930791;28;20235;-61
2022/11/25 10:39:35;;;;;;;0.00;0.00;;;;;;;8.02;100.00;98827.22;4928535;28;20238;-60
2022/11/25 10:42:06;;;;;;;0.00;0.00;;;;;;;8.02;100.00;98831.56;4922851;28;20842;-61
2022/11/25 10:44:36;;;;;;;0.00;0.00;;;;;;;8.01;100.00;98832.53;4926641;28;20228;-61
2022/11/25 10:47:19;;;;;;;0.00;0.00;;;;;;;7.97;100.00;98839.75;4930799;28;20295;-61
2022/11/25 10:49:59;;;;;;;0.00;0.00;;;;;;;7.93;100.00;98835.78;4927570;28;20234;-61
2022/11/25 10:52:30;;;;;;;0.00;0.00;;;;;;;7.93;100.00;98834.00;4927782;28;20249;-61
2022/11/25 10:54:58;;;;;;;0.00;0.00;;;;;;;7.93;100.00;98848.78;4930428;28;20241;-61
2022/11/25 10:57:28;;;;;;;0.00;0.00;;;;;;;7.82;100.00;98847.88;4927052;28;20239;-61
2022/11/25 10:59:58;;;;;;;0.00;0.00;;;;;;;7.81;100.00;98848.84;4929542;28;20587;-61
2022/11/25 11:02:27;;;;;;;0.00;0.00;;;;;;;7.83;100.00;98849.53;4927328;28;20223;-61
2022/11/25 11:04:57;;;;;;;0.00;0.00;;;;;;;7.80;100.00;98856.78;4932413;28;20228;-61
2022/11/25 11:07:25;;;;;;;0.00;0.00;;;;;;;7.81;100.00;98858.44;4926033;28;20246;-62
2022/11/25 11:09:52;;;;;;;0.00;0.00;;;;;;;7.87;100.00;98860.53;4925246;28;20283;-61
2022/11/25 11:12:22;;;;;;;0.00;0.00;;;;;;;7.82;100.00;98858.28;4926005;28;20243;-61
2022/11/25 11:14:49;;;;;;;0.00;0.00;;;;;;;7.84;100.00;98868.56;4929381;28;20707;-61
2022/11/25 11:17:31;;;;;;;0.00;0.00;;;;;;;7.90;100.00;98867.22;4927418;28;20227;-61
2022/11/25 11:20:23;;;;;;;0.00;0.00;;;;;;;7.97;100.00;98865.75;4929893;28;20237;-61
2022/11/25 11:22:55;;;;;;;0.00;0.00;;;;;;;8.06;100.00;98865.00;4926433;28;20732;-61
2022/11/25 11:25:41;;;;;;;0.00;0.00;;;;;;;8.12;100.00;98861.03;4927503;28;20231;-61
2022/11/25 11:28:26;;;;;;;0.00;0.00;;;;;;;8.10;100.00;98876.78;4922430;28;20235;-61
2022/11/25 11:30:56;;;;;;;0.00;0.00;;;;;;;8.15;100.00;98873.78;4929656;28;20294;-61
2022/11/25 11:33:33;;;;;;;0.00;0.00;;;;;;;8.17;100.00;98876.28;4919941;28;20314;-61
2022/11/25 11:36:10;;;;;;;0.00;0.00;;;;;;;8.11;100.00;98880.19;4930364;28;20242;-61
2022/11/25 11:38:48;;;;;;;0.00;0.00;;;;;;;8.18;100.00;98885.72;4926909;28;20230;-61
2022/11/25 11:41:24;;;;;;;0.00;0.00;;;;;;;8.24;100.00;98882.59;4926749;28;20232;-61
2022/11/25 11:44:08;;;;;;;0.00;0.00;;;;;;;8.20;100.00;98884.63;4928895;28;20302;-62
2022/11/25 11:46:47;;;;;;;0.00;0.00;;;;;;;8.28;100.00;98884.00;4926482;28;20321;-61
2022/11/25 11:49:38;;;;;;;0.00;0.00;;;;;;;8.51;100.00;98891.63;4926126;28;20275;-61
2022/11/25 11:52:12;;;;;;;0.00;0.00;;;;;;;8.66;100.00;98897.31;4928711;28;20251;-61
2022/11/25 11:54:45;;;;;;;0.00;0.00;;;;;;;8.77;100.00;98897.22;4926202;28;20305;-61
2022/11/25 11:57:21;;;;;;;0.00;0.00;;;;;;;8.77;100.00;98894.63;4911017;28;20228;-61